createdAt,value
2019-02-24T00:01:13.752Z,114.17
2019-02-24T00:03:40.494Z,104.93
2019-02-24T00:06:07.343Z,99.83
2019-02-24T00:08:34.480Z,101.67
2019-02-24T00:11:01.182Z,95.67
2019-02-24T00:13:27.974Z,95.50
2019-02-24T00:15:54.818Z,107.50
2019-02-24T00:18:21.662Z,114.07
2019-02-24T00:20:48.558Z,96.80
2019-02-24T00:23:15.340Z,111.47
2019-02-24T00:25:42.079Z,93.60
2019-02-24T00:28:08.889Z,91.40
2019-02-24T00:30:36.215Z,104.40
2019-02-24T00:33:02.911Z,84.93
2019-02-24T00:35:29.647Z,89.50
2019-02-24T00:37:56.872Z,103.43
2019-02-24T00:40:23.942Z,101.97
2019-02-24T00:42:51.214Z,82.70
2019-02-24T00:45:17.927Z,93.43
2019-02-24T00:47:44.674Z,77.40
2019-02-24T00:50:11.544Z,76.37
2019-02-24T00:52:38.255Z,94.13
2019-02-24T00:55:04.985Z,90.20
2019-02-24T00:57:31.727Z,95.93
2019-02-24T00:59:58.474Z,103.13
2019-02-24T01:02:25.319Z,109.83
2019-02-24T01:04:52.160Z,95.63
2019-02-24T01:07:18.953Z,100.30
2019-02-24T01:09:45.693Z,96.37
2019-02-24T01:12:12.369Z,95.60
2019-02-24T01:14:39.077Z,107.77
2019-02-24T01:17:05.951Z,93.70
2019-02-24T01:19:32.687Z,99.00
2019-02-24T01:21:59.832Z,91.97
2019-02-24T01:24:26.572Z,97.97
2019-02-24T01:26:53.311Z,111.33
2019-02-24T01:29:20.051Z,109.67
2019-02-24T01:31:46.805Z,101.30
2019-02-24T01:34:13.646Z,107.63
2019-02-24T01:36:40.495Z,88.47
2019-02-24T01:39:07.209Z,112.93
2019-02-24T01:41:33.972Z,102.90
2019-02-24T01:44:00.903Z,96.23
2019-02-24T01:46:27.646Z,100.43
2019-02-24T01:48:54.395Z,92.77
2019-02-24T01:51:21.113Z,107.80
2019-02-24T01:53:47.863Z,96.57
2019-02-24T01:56:14.802Z,106.93
2019-02-24T01:58:41.551Z,86.30
2019-02-24T02:01:08.401Z,93.50
2019-02-24T02:03:35.171Z,96.90
2019-02-24T02:06:01.971Z,99.00
2019-02-24T02:08:28.658Z,80.50
2019-02-24T02:10:55.352Z,101.80
2019-02-24T02:13:22.229Z,84.70
2019-02-24T02:15:48.894Z,98.67
2019-02-24T02:18:15.668Z,89.83
2019-02-24T02:20:42.438Z,80.00
2019-02-24T02:23:09.147Z,84.87
2019-02-24T02:25:36.008Z,82.97
2019-02-24T02:28:02.731Z,80.40
2019-02-24T02:30:29.579Z,79.30
2019-02-24T02:32:56.405Z,90.70
2019-02-24T02:35:23.133Z,83.37
2019-02-24T02:37:49.885Z,80.53
2019-02-24T02:40:16.635Z,84.63
2019-02-24T02:42:43.492Z,95.30
2019-02-24T02:45:10.307Z,86.57
2019-02-24T02:47:37.181Z,84.43
2019-02-24T02:50:04.199Z,78.03
2019-02-24T02:52:30.906Z,88.83
2019-02-24T02:54:57.667Z,82.27
2019-02-24T02:57:24.410Z,89.90
2019-02-24T02:59:51.144Z,82.73
2019-02-24T03:02:24.314Z,82.80
2019-02-24T03:04:46.277Z,89.70
2019-02-24T03:07:13.118Z,80.73
2019-02-24T03:09:39.960Z,72.43
2019-02-24T03:12:06.692Z,79.67
2019-02-24T03:14:33.436Z,69.27
2019-02-24T03:17:00.274Z,75.50
2019-02-24T03:19:27.003Z,72.40
2019-02-24T03:21:53.745Z,67.93
2019-02-24T03:32:09.385Z,74.73
2019-02-24T03:34:36.223Z,75.17
2019-02-24T03:37:02.964Z,75.67
2019-02-24T03:39:29.698Z,73.63
2019-02-24T03:41:56.448Z,76.93
2019-02-24T03:44:23.180Z,87.47
2019-02-24T03:46:49.924Z,81.70
2019-02-24T03:49:16.665Z,80.97
2019-02-24T03:51:43.507Z,76.63
2019-02-24T03:54:10.228Z,83.70
2019-02-24T03:56:36.993Z,74.80
2019-02-24T03:59:14.453Z,78.60
2019-02-24T04:01:32.294Z,70.60
2019-02-24T04:03:59.036Z,69.47
2019-02-24T04:06:25.887Z,66.27
2019-02-24T04:08:52.730Z,70.87
2019-02-24T04:11:19.571Z,75.87
2019-02-24T04:13:46.511Z,70.77
2019-02-24T04:16:13.359Z,68.90
2019-02-24T04:18:40.300Z,67.87
2019-02-24T04:21:07.003Z,80.37
2019-02-24T04:23:33.774Z,62.47
2019-02-24T04:26:00.490Z,61.30
2019-02-24T04:28:27.252Z,78.17
2019-02-24T04:30:54.087Z,75.80
2019-02-24T04:33:20.835Z,73.57
2019-02-24T04:35:47.567Z,80.13
2019-02-24T04:38:15.988Z,75.50
2019-02-24T04:40:42.902Z,69.47
2019-02-24T04:43:09.732Z,59.80
2019-02-24T04:45:36.584Z,57.90
2019-02-24T04:48:03.426Z,70.23
2019-02-24T04:50:30.310Z,66.77
2019-02-24T04:52:57.107Z,71.30
2019-02-24T04:55:23.948Z,72.73
2019-02-24T04:57:50.794Z,63.07
2019-02-24T05:00:17.527Z,48.93
2019-02-24T05:02:44.374Z,63.33
2019-02-24T05:05:11.207Z,56.70
2019-02-24T05:07:38.038Z,62.27
2019-02-24T05:10:04.715Z,62.43
2019-02-24T05:12:31.712Z,58.43
2019-02-24T05:14:58.575Z,67.47
2019-02-24T05:17:25.319Z,66.17
2019-02-24T05:19:52.255Z,44.57
2019-02-24T05:22:19.101Z,72.97
2019-02-24T05:24:45.949Z,72.30
2019-02-24T05:27:12.674Z,65.67
2019-02-24T05:29:45.831Z,67.63
2019-02-24T05:32:08.300Z,71.33
2019-02-24T05:34:35.005Z,76.53
2019-02-24T05:37:01.780Z,85.10
2019-02-24T05:39:28.528Z,77.83
2019-02-24T05:41:55.369Z,79.87
2019-02-24T05:44:22.722Z,88.63
2019-02-24T05:46:49.475Z,89.53
2019-02-24T05:49:16.305Z,84.03
2019-02-24T05:51:43.153Z,106.60
2019-02-24T05:54:09.885Z,101.27
2019-02-24T05:56:36.730Z,98.53
2019-02-24T05:59:03.457Z,98.20
2019-02-24T06:01:30.214Z,115.43
2019-02-24T06:03:57.058Z,121.43
2019-02-24T06:06:23.803Z,100.60
2019-02-24T06:08:50.623Z,112.30
2019-02-24T06:11:17.473Z,105.90
2019-02-24T06:13:44.313Z,104.57
2019-02-24T06:16:11.350Z,108.57
2019-02-24T06:18:38.201Z,117.37
2019-02-24T06:21:04.983Z,107.40
2019-02-24T06:23:31.777Z,102.27
2019-02-24T06:25:58.551Z,111.57
2019-02-24T06:28:25.220Z,121.93
2019-02-24T06:30:51.886Z,113.23
2019-02-24T06:33:18.726Z,122.83
2019-02-24T06:35:45.375Z,122.43
2019-02-24T06:38:12.215Z,101.50
2019-02-24T06:40:39.070Z,113.73
2019-02-24T06:43:05.788Z,116.80
2019-02-24T06:45:32.493Z,125.13
2019-02-24T06:47:59.333Z,103.83
2019-02-24T06:50:35.105Z,133.40
2019-02-24T06:52:54.909Z,110.10
2019-02-24T06:55:21.642Z,128.37
2019-02-24T06:57:48.380Z,108.13
2019-02-24T07:00:15.218Z,116.93
2019-02-24T07:02:41.968Z,107.70
2019-02-24T07:05:08.712Z,116.00
2019-02-24T07:07:35.442Z,114.27
2019-02-24T07:10:02.284Z,110.13
2019-02-24T07:12:29.127Z,124.93
2019-02-24T07:14:55.827Z,123.97
2019-02-24T07:17:22.612Z,97.60
2019-02-24T07:19:49.450Z,119.77
2019-02-24T07:22:16.649Z,120.43
2019-02-24T07:24:43.467Z,105.27
2019-02-24T07:27:10.283Z,131.60
2019-02-24T07:29:37.119Z,111.47
2019-02-24T07:32:03.953Z,100.17
2019-02-24T07:34:30.820Z,126.03
2019-02-24T07:36:57.536Z,108.10
2019-02-24T07:39:24.241Z,107.03
2019-02-24T07:41:50.907Z,96.97
2019-02-24T07:44:17.554Z,101.33
2019-02-24T07:46:44.389Z,107.67
2019-02-24T07:49:11.126Z,92.57
2019-02-24T07:51:37.874Z,99.43
2019-02-24T07:54:04.612Z,96.23
2019-02-24T07:56:31.562Z,77.67
2019-02-24T07:58:58.407Z,89.37
2019-02-24T08:01:25.149Z,105.93
2019-02-24T08:03:52.196Z,97.83
2019-02-24T08:06:19.030Z,90.73
2019-02-24T08:08:45.869Z,95.53
2019-02-24T08:11:12.955Z,87.50
2019-02-24T08:13:39.665Z,90.23
2019-02-24T08:16:06.506Z,86.20
2019-02-24T08:18:33.336Z,73.93
2019-02-24T08:21:00.201Z,74.93
2019-02-24T08:23:27.229Z,85.63
2019-02-24T08:25:54.069Z,74.23
2019-02-24T08:28:20.934Z,98.70
2019-02-24T08:30:47.758Z,74.20
2019-02-24T08:33:14.493Z,77.93
2019-02-24T08:35:41.634Z,75.03
2019-02-24T08:38:08.426Z,71.97
2019-02-24T08:40:35.220Z,58.63
2019-02-24T08:43:02.063Z,77.37
2019-02-24T08:45:28.909Z,75.57
2019-02-24T08:47:55.849Z,80.03
2019-02-24T08:50:22.648Z,77.33
2019-02-24T08:52:49.445Z,79.63
2019-02-24T08:55:16.260Z,80.33
2019-02-24T08:57:43.000Z,74.13
2019-02-24T09:00:09.870Z,77.90
2019-02-24T09:02:36.552Z,83.37
2019-02-24T09:05:03.229Z,82.67
2019-02-24T09:07:33.592Z,77.27
2019-02-24T09:10:00.470Z,81.50
2019-02-24T09:12:27.448Z,83.63
2019-02-24T09:14:54.145Z,85.07
2019-02-24T09:17:21.359Z,79.67
2019-02-24T09:19:48.065Z,75.50
2019-02-24T09:22:14.806Z,86.60
2019-02-24T09:24:41.820Z,74.73
2019-02-24T09:27:08.586Z,64.10
2019-02-24T09:29:35.953Z,70.77
2019-02-24T09:32:02.915Z,89.17
2019-02-24T09:34:29.800Z,66.17
2019-02-24T09:36:56.591Z,53.63
2019-02-24T09:39:23.418Z,63.33
2019-02-24T09:41:50.147Z,64.53
2019-02-24T09:44:17.001Z,91.73
2019-02-24T09:46:44.035Z,64.63
2019-02-24T09:49:10.878Z,62.10
2019-02-24T09:51:37.613Z,70.07
2019-02-24T09:54:04.351Z,59.10
2019-02-24T09:56:31.214Z,68.60
2019-02-24T09:58:58.058Z,65.07
2019-02-24T10:01:24.878Z,78.47
2019-02-24T10:03:51.720Z,75.07
2019-02-24T10:06:18.467Z,87.13
2019-02-24T10:08:45.288Z,60.67
2019-02-24T10:11:13.256Z,71.37
2019-02-24T10:13:40.210Z,63.77
2019-02-24T10:16:06.956Z,63.73
2019-02-24T10:18:33.702Z,62.97
2019-02-24T10:21:00.549Z,90.33
2019-02-24T10:23:27.384Z,67.27
2019-02-24T10:25:54.082Z,67.27
2019-02-24T10:28:20.751Z,73.30
2019-02-24T10:30:47.609Z,73.00
2019-02-24T10:33:14.451Z,81.47
2019-02-24T10:35:41.286Z,73.47
2019-02-24T10:38:08.174Z,77.80
2019-02-24T10:40:34.835Z,61.77
2019-02-24T10:43:01.603Z,65.23
2019-02-24T10:45:28.461Z,63.07
2019-02-24T10:47:55.301Z,80.93
2019-02-24T10:50:22.133Z,79.43
2019-02-24T10:52:48.993Z,84.60
2019-02-24T10:55:15.815Z,73.23
2019-02-24T10:57:42.661Z,65.20
2019-02-24T11:00:09.604Z,65.27
2019-02-24T11:02:36.443Z,78.70
2019-02-24T11:05:03.193Z,83.20
2019-02-24T11:07:30.020Z,74.80
2019-02-24T11:09:56.751Z,70.77
2019-02-24T11:12:23.535Z,80.67
2019-02-24T11:14:50.444Z,90.03
2019-02-24T11:17:17.283Z,90.97
2019-02-24T11:19:44.129Z,75.90
2019-02-24T11:22:10.883Z,73.77
2019-02-24T11:24:37.606Z,72.33
2019-02-24T11:27:04.456Z,70.73
2019-02-24T11:29:31.393Z,73.53
2019-02-24T11:31:58.240Z,75.93
2019-02-24T11:34:24.988Z,85.67
2019-02-24T11:36:51.820Z,66.47
2019-02-24T11:39:18.655Z,66.90
2019-02-24T11:41:45.536Z,68.87
2019-02-24T11:44:12.332Z,97.37
2019-02-24T11:46:39.077Z,72.03
2019-02-24T11:49:05.929Z,63.40
2019-02-24T11:51:32.760Z,72.27
2019-02-24T11:53:59.677Z,53.20
2019-02-24T11:56:26.454Z,74.90
2019-02-24T11:58:53.287Z,63.43
2019-02-24T12:01:20.022Z,59.90
2019-02-24T12:03:47.259Z,64.07
2019-02-24T12:06:13.909Z,65.33
2019-02-24T12:08:40.653Z,50.43
2019-02-24T12:11:07.389Z,52.43
2019-02-24T12:13:34.138Z,60.03
2019-02-24T12:16:01.377Z,55.40
2019-02-24T12:18:28.225Z,61.50
2019-02-24T12:20:54.971Z,62.27
2019-02-24T12:23:22.118Z,52.47
2019-02-24T12:25:48.946Z,56.93
2019-02-24T12:28:16.186Z,61.47
2019-02-24T12:30:42.956Z,65.60
2019-02-24T12:33:09.677Z,60.93
2019-02-24T12:35:36.392Z,58.97
2019-02-24T12:38:03.167Z,61.20
2019-02-24T12:40:30.013Z,58.10
2019-02-24T12:42:56.901Z,65.77
2019-02-24T12:45:23.699Z,59.17
2019-02-24T12:47:50.533Z,57.50
2019-02-24T12:50:17.478Z,58.60
2019-02-24T12:52:44.626Z,59.53
2019-02-24T12:55:11.498Z,58.37
2019-02-24T12:57:38.298Z,53.40
2019-02-24T13:00:05.053Z,58.47
2019-02-24T13:02:31.880Z,50.33
2019-02-24T13:04:59.295Z,49.70
2019-02-24T13:07:26.503Z,56.90
2019-02-24T13:09:53.339Z,58.20
2019-02-24T13:12:20.079Z,65.83
2019-02-24T13:14:46.921Z,64.63
2019-02-24T13:17:14.155Z,59.30
2019-02-24T13:19:41.022Z,58.80
2019-02-24T13:22:07.905Z,59.23
2019-02-24T13:24:34.708Z,67.73
2019-02-24T13:27:01.527Z,61.47
2019-02-24T13:29:28.677Z,64.00
2019-02-24T13:31:55.528Z,75.83
2019-02-24T13:34:22.270Z,64.70
2019-02-24T13:36:49.105Z,66.33
2019-02-24T13:39:16.039Z,69.23
2019-02-24T13:41:43.450Z,73.43
2019-02-24T13:44:10.254Z,65.10
2019-02-24T13:46:37.099Z,63.10
2019-02-24T13:49:03.929Z,81.23
2019-02-24T13:51:30.766Z,60.67
2019-02-24T13:53:57.600Z,63.73
2019-02-24T13:56:24.325Z,78.07
2019-02-24T13:58:51.083Z,60.13
2019-02-24T14:01:17.939Z,71.03
2019-02-24T14:03:44.656Z,64.50
2019-02-24T14:06:11.417Z,66.97
2019-02-24T14:08:38.246Z,66.90
2019-02-24T14:11:05.003Z,101.60
2019-02-24T14:13:31.871Z,98.90
2019-02-24T14:15:58.680Z,98.07
2019-02-24T14:18:25.517Z,117.10
2019-02-24T14:20:52.347Z,95.07
2019-02-24T14:23:19.303Z,112.83
2019-02-24T14:25:46.248Z,109.73
2019-02-24T14:28:13.086Z,134.60
2019-02-24T14:30:40.317Z,92.63
2019-02-24T14:33:07.591Z,94.03
2019-02-24T14:35:34.322Z,93.33
2019-02-24T14:38:01.247Z,79.00
2019-02-24T14:40:28.243Z,112.90
2019-02-24T14:42:55.116Z,92.43
2019-02-24T14:45:22.390Z,121.60
2019-02-24T14:47:50.173Z,99.67
2019-02-24T14:50:17.034Z,104.33
2019-02-24T14:52:43.741Z,91.60
2019-02-24T14:55:10.636Z,85.07
2019-02-24T14:57:37.394Z,78.60
2019-02-24T15:00:04.097Z,103.70
2019-02-24T15:02:31.145Z,92.67
2019-02-24T15:04:58.736Z,104.87
2019-02-24T15:07:25.908Z,102.67
2019-02-24T15:09:52.761Z,123.30
2019-02-24T15:12:19.667Z,109.97
2019-02-24T15:14:46.501Z,114.63
2019-02-24T15:17:13.659Z,117.87
2019-02-24T15:19:40.850Z,112.50
2019-02-24T15:22:08.072Z,109.53
2019-02-24T15:24:35.155Z,131.77
2019-02-24T15:27:02.465Z,101.10
2019-02-24T15:29:29.176Z,111.90
2019-02-24T15:31:56.625Z,99.60
2019-02-24T15:34:23.481Z,127.57
2019-02-24T15:36:50.476Z,76.87
2019-02-24T15:39:17.214Z,96.27
2019-02-24T15:41:44.468Z,99.03
2019-02-24T15:44:11.322Z,88.83
2019-02-24T15:46:38.159Z,90.93
2019-02-24T15:49:05.359Z,108.87
2019-02-24T15:51:32.274Z,99.07
2019-02-24T15:53:59.370Z,113.83
2019-02-24T15:56:27.081Z,116.87
2019-02-24T15:58:54.307Z,96.73
2019-02-24T16:01:21.460Z,100.90
2019-02-24T16:03:48.510Z,106.50
2019-02-24T16:06:15.398Z,107.67
2019-02-24T16:08:43.228Z,95.53
2019-02-24T16:11:09.915Z,98.60
2019-02-24T16:13:36.690Z,82.67
2019-02-24T16:16:03.438Z,98.17
2019-02-24T16:18:30.164Z,92.60
2019-02-24T16:20:56.913Z,116.80
2019-02-24T16:23:23.753Z,89.63
2019-02-24T16:25:50.494Z,101.80
2019-02-24T16:28:17.353Z,95.73
2019-02-24T16:30:44.064Z,99.00
2019-02-24T16:33:11.006Z,90.43
2019-02-24T16:35:37.911Z,91.80
2019-02-24T16:38:04.602Z,89.27
2019-02-24T16:40:31.445Z,87.67
2019-02-24T16:42:58.177Z,86.30
2019-02-24T16:45:25.028Z,99.17
2019-02-24T16:47:51.763Z,91.30
2019-02-24T16:50:18.489Z,101.77
2019-02-24T16:52:45.239Z,84.67
2019-02-24T16:55:12.086Z,120.93
2019-02-24T16:57:38.912Z,116.87
2019-02-24T17:00:05.881Z,84.73
2019-02-24T17:02:32.705Z,84.37
2019-02-24T17:04:59.547Z,93.03
2019-02-24T17:07:26.247Z,98.83
2019-02-24T17:09:53.233Z,98.33
2019-02-24T17:12:20.035Z,96.37
2019-02-24T17:14:46.933Z,98.83
2019-02-24T17:17:13.748Z,103.80
2019-02-24T17:19:41.046Z,91.00
2019-02-24T17:22:08.055Z,104.27
2019-02-24T17:24:35.918Z,109.67
2019-02-24T17:27:04.156Z,93.73
2019-02-24T17:29:31.502Z,86.17
2019-02-24T17:32:09.850Z,94.83
2019-02-24T17:34:36.713Z,103.83
2019-02-24T17:37:03.543Z,99.67
2019-02-24T17:39:30.386Z,92.00
2019-02-24T17:41:57.254Z,93.03
2019-02-24T17:44:24.073Z,112.80
2019-02-24T17:46:50.915Z,101.20
2019-02-24T17:49:17.619Z,109.77
2019-02-24T17:51:44.548Z,121.53
2019-02-24T17:54:11.255Z,93.53
2019-02-24T17:56:38.076Z,120.37
2019-02-24T17:59:05.006Z,98.23
2019-02-24T18:01:31.759Z,105.30
2019-02-24T18:03:58.701Z,109.07
2019-02-24T18:06:25.438Z,115.30
2019-02-24T18:08:54.296Z,92.97
2019-02-24T18:11:20.915Z,106.60
2019-02-24T18:13:47.707Z,90.50
2019-02-24T18:16:14.545Z,102.90
2019-02-24T18:18:41.612Z,98.47
2019-02-24T18:21:08.450Z,88.93
2019-02-24T18:23:35.169Z,90.80
2019-02-24T18:26:02.020Z,99.50
2019-02-24T18:28:28.860Z,94.27
2019-02-24T18:30:55.594Z,108.50
2019-02-24T18:33:22.997Z,99.10
2019-02-24T18:35:49.752Z,110.23
2019-02-24T18:38:16.431Z,102.30
2019-02-24T18:40:43.706Z,109.97
2019-02-24T18:43:10.590Z,93.73
2019-02-24T18:45:37.598Z,96.57
2019-02-24T18:48:04.309Z,90.83
2019-02-24T18:50:31.168Z,94.90
2019-02-24T18:52:59.117Z,84.50
2019-02-24T18:55:26.252Z,97.70
2019-02-24T18:57:53.002Z,113.50
2019-02-24T19:00:19.852Z,99.33
2019-02-24T19:02:46.685Z,100.77
2019-02-24T19:05:13.999Z,113.83
2019-02-24T19:07:41.122Z,87.57
2019-02-24T19:10:08.021Z,81.37
2019-02-24T19:12:34.779Z,106.60
2019-02-24T19:15:01.500Z,77.93
2019-02-24T19:17:28.356Z,85.27
2019-02-24T19:19:55.192Z,94.53
2019-02-24T19:22:22.295Z,80.93
2019-02-24T19:24:49.072Z,75.00
2019-02-24T19:27:15.822Z,95.23
2019-02-24T19:29:42.668Z,74.73
2019-02-24T19:32:09.391Z,76.47
2019-02-24T19:34:36.141Z,84.23
2019-02-24T19:37:02.895Z,88.73
2019-02-24T19:39:29.607Z,82.00
2019-02-24T19:41:56.458Z,85.17
2019-02-24T19:44:23.194Z,96.30
2019-02-24T19:46:49.941Z,89.47
2019-02-24T19:49:16.782Z,100.83
2019-02-24T19:51:43.730Z,90.37
2019-02-24T19:54:10.515Z,90.43
2019-02-24T19:56:37.299Z,96.47
2019-02-24T19:59:04.148Z,82.37
2019-02-24T20:01:31.025Z,84.50
2019-02-24T20:03:57.846Z,88.53
2019-02-24T20:06:25.016Z,90.03
2019-02-24T20:08:51.894Z,102.50
2019-02-24T20:11:18.610Z,105.70
2019-02-24T20:13:45.405Z,105.27
2019-02-24T20:16:12.181Z,119.00
2019-02-24T20:18:38.933Z,92.37
2019-02-24T20:21:07.810Z,98.23
2019-02-24T20:23:34.209Z,87.43
2019-02-24T20:26:01.078Z,94.17
2019-02-24T20:28:27.789Z,102.60
2019-02-24T20:30:54.652Z,98.23
2019-02-24T20:33:22.550Z,139.47
2019-02-24T20:35:49.704Z,113.20
2019-02-24T20:38:16.417Z,99.47
2019-02-24T20:40:43.127Z,89.00
2019-02-24T20:43:09.970Z,104.33
2019-02-24T20:45:36.672Z,90.63
2019-02-24T20:48:03.457Z,93.73
2019-02-24T20:50:30.311Z,97.40
2019-02-24T20:52:57.184Z,116.40
2019-02-24T20:55:24.021Z,129.53
2019-02-24T20:57:50.819Z,101.97
2019-02-24T21:00:17.951Z,98.57
2019-02-24T21:02:44.794Z,117.63
2019-02-24T21:05:11.833Z,84.40
2019-02-24T21:07:39.252Z,91.43
2019-02-24T21:10:06.777Z,83.70
2019-02-24T21:12:33.713Z,96.50
2019-02-24T21:15:00.753Z,84.80
2019-02-24T21:17:27.579Z,102.03
2019-02-24T21:19:54.420Z,86.60
2019-02-24T21:22:21.173Z,115.37
2019-02-24T21:24:49.023Z,102.30
2019-02-24T21:27:17.308Z,92.47
2019-02-24T21:29:44.048Z,87.37
2019-02-24T21:32:11.264Z,91.17
2019-02-24T21:34:38.555Z,98.53
2019-02-24T21:37:05.560Z,90.77
2019-02-24T21:39:32.552Z,112.83
2019-02-24T21:41:59.382Z,127.23
2019-02-24T21:44:26.224Z,119.87
2019-02-24T21:46:53.065Z,92.97
2019-02-24T21:49:19.798Z,93.27
2019-02-24T21:51:46.538Z,93.27
2019-02-24T21:54:13.286Z,79.60
2019-02-24T21:56:40.282Z,95.63
2019-02-24T21:59:07.111Z,87.00
2019-02-24T22:01:33.808Z,89.73
2019-02-24T22:04:00.549Z,78.67
2019-02-24T22:06:27.402Z,97.50
2019-02-24T22:08:54.207Z,80.47
2019-02-24T22:11:20.984Z,100.57
2019-02-24T22:13:47.806Z,100.07
2019-02-24T22:16:14.658Z,100.10
2019-02-24T22:18:41.383Z,100.00
2019-02-24T22:21:08.221Z,77.53
2019-02-24T22:23:34.886Z,102.80
2019-02-24T22:26:01.601Z,93.87
2019-02-24T22:28:28.617Z,94.33
2019-02-24T22:30:56.604Z,84.57
2019-02-24T22:33:23.490Z,102.10
2019-02-24T22:35:50.317Z,94.73
2019-02-24T22:38:17.154Z,124.07
2019-02-24T22:40:44.104Z,96.90
2019-02-24T22:43:11.145Z,86.67
2019-02-24T22:45:37.972Z,87.90
2019-02-24T22:48:04.827Z,92.73
2019-02-24T22:50:31.668Z,89.43
2019-02-24T22:52:58.811Z,94.50
2019-02-24T22:55:25.669Z,95.23
2019-02-24T22:57:52.732Z,80.83
2019-02-24T23:00:19.738Z,77.93
2019-02-24T23:02:46.494Z,98.43
2019-02-24T23:05:13.339Z,90.90
2019-02-24T23:07:40.068Z,84.53
2019-02-24T23:10:06.899Z,88.57
2019-02-24T23:12:33.540Z,81.33
2019-02-24T23:15:00.277Z,80.17
2019-02-24T23:17:27.127Z,90.97
2019-02-24T23:19:53.825Z,90.43
2019-02-24T23:22:20.599Z,79.97
2019-02-24T23:24:47.333Z,99.77
2019-02-24T23:27:14.140Z,97.40
2019-02-24T23:29:41.670Z,82.23
2019-02-24T23:32:08.480Z,87.90
2019-02-24T23:34:35.333Z,91.37
2019-02-24T23:37:02.173Z,78.40
2019-02-24T23:39:28.896Z,78.93
2019-02-24T23:41:55.638Z,74.47
2019-02-24T23:44:22.376Z,82.17
2019-02-24T23:46:49.217Z,82.57
2019-02-24T23:49:16.228Z,87.07
2019-02-24T23:51:43.014Z,77.67
2019-02-24T23:54:10.050Z,100.50
2019-02-24T23:56:36.796Z,74.43
2019-02-24T23:59:03.638Z,79.83
